sensor_id;sensor_type;location;lat;lon;timestamp;P1;durP1;ratioP1;P2;durP2;ratioP2
71896;SDS011;59767;51.344;12.362;2023-09-19T00:00:20;5.05;;;1.77;;
71896;SDS011;59767;51.344;12.362;2023-09-19T00:03:25;2.17;;;1.33;;
71896;SDS011;59767;51.344;12.362;2023-09-19T00:06:32;7.05;;;1.92;;
71896;SDS011;59767;51.344;12.362;2023-09-19T00:09:36;5.93;;;1.75;;
71896;SDS011;59767;51.344;12.362;2023-09-19T00:12:43;5.45;;;1.50;;
71896;SDS011;59767;51.344;12.362;2023-09-19T00:15:47;5.95;;;1.75;;
71896;SDS011;59767;51.344;12.362;2023-09-19T00:18:53;7.60;;;1.80;;
71896;SDS011;59767;51.344;12.362;2023-09-19T00:21:57;4.80;;;1.73;;
71896;SDS011;59767;51.344;12.362;2023-09-19T00:25:02;3.60;;;1.38;;
71896;SDS011;59767;51.344;12.362;2023-09-19T00:28:06;7.30;;;1.75;;
71896;SDS011;59767;51.344;12.362;2023-09-19T00:31:11;4.00;;;1.50;;
71896;SDS011;59767;51.344;12.362;2023-09-19T00:34:15;7.88;;;1.98;;
71896;SDS011;59767;51.344;12.362;2023-09-19T00:37:20;7.00;;;1.70;;
71896;SDS011;59767;51.344;12.362;2023-09-19T00:40:24;5.60;;;1.40;;
71896;SDS011;59767;51.344;12.362;2023-09-19T00:43:29;6.25;;;1.60;;
71896;SDS011;59767;51.344;12.362;2023-09-19T00:46:33;7.90;;;1.90;;
71896;SDS011;59767;51.344;12.362;2023-09-19T00:49:38;5.97;;;1.70;;
71896;SDS011;59767;51.344;12.362;2023-09-19T00:52:42;5.00;;;1.75;;
71896;SDS011;59767;51.344;12.362;2023-09-19T00:55:48;5.95;;;1.80;;
71896;SDS011;59767;51.344;12.362;2023-09-19T00:58:54;6.03;;;1.65;;
71896;SDS011;59767;51.344;12.362;2023-09-19T01:01:58;5.30;;;1.80;;
71896;SDS011;59767;51.344;12.362;2023-09-19T01:05:04;10.98;;;1.90;;
71896;SDS011;59767;51.344;12.362;2023-09-19T01:08:09;5.65;;;1.63;;
71896;SDS011;59767;51.344;12.362;2023-09-19T01:11:18;6.47;;;1.88;;
71896;SDS011;59767;51.344;12.362;2023-09-19T01:17:53;5.50;;;1.98;;
71896;SDS011;59767;51.344;12.362;2023-09-19T01:31:26;5.97;;;1.92;;
71896;SDS011;59767;51.344;12.362;2023-09-19T01:34:48;5.03;;;1.77;;
71896;SDS011;59767;51.344;12.362;2023-09-19T01:37:54;5.90;;;2.00;;
71896;SDS011;59767;51.344;12.362;2023-09-19T01:41:03;5.47;;;2.20;;
71896;SDS011;59767;51.344;12.362;2023-09-19T01:44:16;7.43;;;2.00;;
71896;SDS011;59767;51.344;12.362;2023-09-19T01:47:42;6.30;;;2.05;;
71896;SDS011;59767;51.344;12.362;2023-09-19T01:50:55;7.22;;;2.00;;
71896;SDS011;59767;51.344;12.362;2023-09-19T01:54:06;5.90;;;2.00;;
71896;SDS011;59767;51.344;12.362;2023-09-19T01:57:17;5.13;;;1.92;;
71896;SDS011;59767;51.344;12.362;2023-09-19T02:00:36;5.43;;;2.10;;
71896;SDS011;59767;51.344;12.362;2023-09-19T02:03:41;6.10;;;1.95;;
71896;SDS011;59767;51.344;12.362;2023-09-19T02:06:48;6.30;;;2.00;;
71896;SDS011;59767;51.344;12.362;2023-09-19T02:09:52;7.72;;;2.47;;
71896;SDS011;59767;51.344;12.362;2023-09-19T02:12:56;6.38;;;1.70;;
71896;SDS011;59767;51.344;12.362;2023-09-19T02:16:01;5.55;;;1.85;;
71896;SDS011;59767;51.344;12.362;2023-09-19T02:19:08;3.97;;;1.50;;
71896;SDS011;59767;51.344;12.362;2023-09-19T02:22:12;5.28;;;1.63;;
71896;SDS011;59767;51.344;12.362;2023-09-19T02:25:16;3.10;;;1.20;;
71896;SDS011;59767;51.344;12.362;2023-09-19T02:28:21;7.97;;;1.60;;
71896;SDS011;59767;51.344;12.362;2023-09-19T02:31:26;4.93;;;1.30;;
71896;SDS011;59767;51.344;12.362;2023-09-19T02:34:33;4.95;;;1.52;;
71896;SDS011;59767;51.344;12.362;2023-09-19T02:37:40;6.60;;;1.60;;
71896;SDS011;59767;51.344;12.362;2023-09-19T02:40:44;4.70;;;1.33;;
71896;SDS011;59767;51.344;12.362;2023-09-19T02:43:48;4.43;;;1.30;;
71896;SDS011;59767;51.344;12.362;2023-09-19T02:46:52;4.38;;;1.58;;
71896;SDS011;59767;51.344;12.362;2023-09-19T02:49:57;3.67;;;1.40;;
71896;SDS011;59767;51.344;12.362;2023-09-19T02:53:01;3.10;;;1.13;;
71896;SDS011;59767;51.344;12.362;2023-09-19T02:56:07;6.68;;;1.52;;
71896;SDS011;59767;51.344;12.362;2023-09-19T02:59:11;7.70;;;1.40;;
71896;SDS011;59767;51.344;12.362;2023-09-19T03:02:15;3.17;;;1.50;;
71896;SDS011;59767;51.344;12.362;2023-09-19T03:05:20;3.83;;;1.60;;
71896;SDS011;59767;51.344;12.362;2023-09-19T03:08:25;4.80;;;1.30;;
71896;SDS011;59767;51.344;12.362;2023-09-19T03:11:30;6.07;;;1.50;;
71896;SDS011;59767;51.344;12.362;2023-09-19T03:14:34;4.40;;;1.30;;
71896;SDS011;59767;51.344;12.362;2023-09-19T03:17:42;2.53;;;1.30;;
71896;SDS011;59767;51.344;12.362;2023-09-19T03:20:53;4.20;;;1.58;;
71896;SDS011;59767;51.344;12.362;2023-09-19T03:23:59;7.35;;;1.52;;
71896;SDS011;59767;51.344;12.362;2023-09-19T03:27:03;5.53;;;1.52;;
71896;SDS011;59767;51.344;12.362;2023-09-19T03:30:07;3.88;;;1.30;;
71896;SDS011;59767;51.344;12.362;2023-09-19T03:33:13;4.85;;;1.50;;
71896;SDS011;59767;51.344;12.362;2023-09-19T03:36:17;2.60;;;1.20;;
71896;SDS011;59767;51.344;12.362;2023-09-19T03:39:21;3.03;;;1.38;;
71896;SDS011;59767;51.344;12.362;2023-09-19T03:42:25;8.00;;;1.48;;
71896;SDS011;59767;51.344;12.362;2023-09-19T03:45:30;4.80;;;1.40;;
71896;SDS011;59767;51.344;12.362;2023-09-19T03:48:34;3.80;;;1.38;;
71896;SDS011;59767;51.344;12.362;2023-09-19T03:51:38;3.63;;;1.30;;
71896;SDS011;59767;51.344;12.362;2023-09-19T03:54:45;4.28;;;1.35;;
71896;SDS011;59767;51.344;12.362;2023-09-19T03:57:49;3.83;;;1.52;;
71896;SDS011;59767;51.344;12.362;2023-09-19T04:00:57;3.80;;;1.25;;
71896;SDS011;59767;51.344;12.362;2023-09-19T04:04:02;5.45;;;1.73;;
71896;SDS011;59767;51.344;12.362;2023-09-19T04:07:11;5.13;;;1.30;;
71896;SDS011;59767;51.344;12.362;2023-09-19T04:10:16;4.85;;;1.45;;
71896;SDS011;59767;51.344;12.362;2023-09-19T04:13:20;3.45;;;1.30;;
71896;SDS011;59767;51.344;12.362;2023-09-19T04:16:25;8.35;;;2.08;;
71896;SDS011;59767;51.344;12.362;2023-09-19T04:19:29;5.38;;;1.48;;
71896;SDS011;59767;51.344;12.362;2023-09-19T04:22:33;5.18;;;1.50;;
71896;SDS011;59767;51.344;12.362;2023-09-19T04:25:37;4.75;;;1.60;;
71896;SDS011;59767;51.344;12.362;2023-09-19T04:28:41;4.50;;;1.70;;
71896;SDS011;59767;51.344;12.362;2023-09-19T04:31:47;3.42;;;1.38;;
71896;SDS011;59767;51.344;12.362;2023-09-19T04:34:52;4.30;;;1.40;;
71896;SDS011;59767;51.344;12.362;2023-09-19T04:37:57;5.43;;;1.70;;
71896;SDS011;59767;51.344;12.362;2023-09-19T04:41:02;3.03;;;1.50;;
71896;SDS011;59767;51.344;12.362;2023-09-19T04:44:06;3.63;;;1.40;;
71896;SDS011;59767;51.344;12.362;2023-09-19T04:47:11;6.82;;;1.55;;
71896;SDS011;59767;51.344;12.362;2023-09-19T04:50:16;5.07;;;1.65;;
71896;SDS011;59767;51.344;12.362;2023-09-19T04:53:21;5.97;;;2.10;;
71896;SDS011;59767;51.344;12.362;2023-09-19T04:56:26;5.13;;;1.58;;
71896;SDS011;59767;51.344;12.362;2023-09-19T04:59:32;7.70;;;1.90;;
71896;SDS011;59767;51.344;12.362;2023-09-19T05:02:36;4.07;;;1.42;;
71896;SDS011;59767;51.344;12.362;2023-09-19T05:05:41;3.20;;;1.50;;
71896;SDS011;59767;51.344;12.362;2023-09-19T05:08:49;6.28;;;1.58;;
71896;SDS011;59767;51.344;12.362;2023-09-19T05:11:56;7.47;;;1.50;;
71896;SDS011;59767;51.344;12.362;2023-09-19T05:15:00;4.28;;;1.40;;
71896;SDS011;59767;51.344;12.362;2023-09-19T05:18:07;4.35;;;1.45;;
71896;SDS011;59767;51.344;12.362;2023-09-19T05:21:11;4.32;;;1.35;;
71896;SDS011;59767;51.344;12.362;2023-09-19T05:24:16;6.78;;;1.55;;
71896;SDS011;59767;51.344;12.362;2023-09-19T05:27:20;9.98;;;1.65;;
71896;SDS011;59767;51.344;12.362;2023-09-19T05:30:25;4.60;;;1.67;;
71896;SDS011;59767;51.344;12.362;2023-09-19T05:33:31;4.18;;;1.40;;
71896;SDS011;59767;51.344;12.362;2023-09-19T05:36:36;3.33;;;1.48;;
71896;SDS011;59767;51.344;12.362;2023-09-19T05:39:41;26.10;;;2.33;;
71896;SDS011;59767;51.344;12.362;2023-09-19T05:42:45;6.22;;;1.58;;
71896;SDS011;59767;51.344;12.362;2023-09-19T05:45:50;4.03;;;1.50;;
71896;SDS011;59767;51.344;12.362;2023-09-19T05:49:00;4.10;;;1.50;;
71896;SDS011;59767;51.344;12.362;2023-09-19T05:52:05;7.93;;;1.58;;
71896;SDS011;59767;51.344;12.362;2023-09-19T05:55:10;8.45;;;1.58;;
71896;SDS011;59767;51.344;12.362;2023-09-19T05:58:15;5.97;;;1.55;;
71896;SDS011;59767;51.344;12.362;2023-09-19T06:01:22;48.15;;;3.55;;
71896;SDS011;59767;51.344;12.362;2023-09-19T06:04:27;3.97;;;1.50;;
71896;SDS011;59767;51.344;12.362;2023-09-19T06:07:32;6.00;;;1.40;;
71896;SDS011;59767;51.344;12.362;2023-09-19T06:10:40;5.28;;;1.50;;
71896;SDS011;59767;51.344;12.362;2023-09-19T06:13:44;8.43;;;1.50;;
71896;SDS011;59767;51.344;12.362;2023-09-19T06:16:51;4.72;;;1.60;;
71896;SDS011;59767;51.344;12.362;2023-09-19T06:19:58;3.38;;;1.70;;
71896;SDS011;59767;51.344;12.362;2023-09-19T06:23:02;6.07;;;1.50;;
71896;SDS011;59767;51.344;12.362;2023-09-19T06:26:07;5.15;;;1.60;;
71896;SDS011;59767;51.344;12.362;2023-09-19T06:29:14;4.65;;;1.50;;
71896;SDS011;59767;51.344;12.362;2023-09-19T06:32:19;7.28;;;1.70;;
71896;SDS011;59767;51.344;12.362;2023-09-19T06:35:24;8.77;;;1.70;;
71896;SDS011;59767;51.344;12.362;2023-09-19T06:38:30;11.80;;;1.88;;
71896;SDS011;59767;51.344;12.362;2023-09-19T06:41:35;4.57;;;1.45;;
71896;SDS011;59767;51.344;12.362;2023-09-19T06:44:39;7.57;;;1.70;;
71896;SDS011;59767;51.344;12.362;2023-09-19T06:47:44;11.38;;;2.17;;
71896;SDS011;59767;51.344;12.362;2023-09-19T06:50:49;5.70;;;1.45;;
71896;SDS011;59767;51.344;12.362;2023-09-19T06:53:54;6.03;;;1.83;;
71896;SDS011;59767;51.344;12.362;2023-09-19T06:57:00;5.90;;;1.70;;
71896;SDS011;59767;51.344;12.362;2023-09-19T07:00:05;5.85;;;1.40;;
71896;SDS011;59767;51.344;12.362;2023-09-19T07:03:13;5.80;;;1.63;;
71896;SDS011;59767;51.344;12.362;2023-09-19T07:06:20;5.20;;;1.60;;
71896;SDS011;59767;51.344;12.362;2023-09-19T07:09:24;6.35;;;1.70;;
71896;SDS011;59767;51.344;12.362;2023-09-19T07:12:31;4.50;;;1.50;;
71896;SDS011;59767;51.344;12.362;2023-09-19T07:15:37;6.13;;;1.67;;
71896;SDS011;59767;51.344;12.362;2023-09-19T07:18:51;7.85;;;1.40;;
71896;SDS011;59767;51.344;12.362;2023-09-19T07:21:55;6.75;;;1.67;;
71896;SDS011;59767;51.344;12.362;2023-09-19T07:24:59;7.63;;;1.55;;
71896;SDS011;59767;51.344;12.362;2023-09-19T07:28:04;6.47;;;1.50;;
71896;SDS011;59767;51.344;12.362;2023-09-19T07:31:08;6.75;;;1.45;;
71896;SDS011;59767;51.344;12.362;2023-09-19T07:34:13;8.73;;;1.75;;
71896;SDS011;59767;51.344;12.362;2023-09-19T07:37:17;7.95;;;1.83;;
71896;SDS011;59767;51.344;12.362;2023-09-19T07:40:22;10.20;;;1.90;;
71896;SDS011;59767;51.344;12.362;2023-09-19T07:43:27;9.40;;;1.60;;
71896;SDS011;59767;51.344;12.362;2023-09-19T07:46:32;5.90;;;1.40;;
71896;SDS011;59767;51.344;12.362;2023-09-19T07:49:36;10.45;;;1.92;;
71896;SDS011;59767;51.344;12.362;2023-09-19T07:52:41;8.00;;;1.60;;
71896;SDS011;59767;51.344;12.362;2023-09-19T07:55:45;7.20;;;2.15;;
71896;SDS011;59767;51.344;12.362;2023-09-19T07:58:52;9.30;;;1.40;;
71896;SDS011;59767;51.344;12.362;2023-09-19T08:01:56;8.25;;;1.60;;
71896;SDS011;59767;51.344;12.362;2023-09-19T08:05:01;8.00;;;1.75;;
71896;SDS011;59767;51.344;12.362;2023-09-19T08:08:10;9.95;;;1.67;;
71896;SDS011;59767;51.344;12.362;2023-09-19T08:11:16;9.70;;;2.00;;
71896;SDS011;59767;51.344;12.362;2023-09-19T08:14:25;17.23;;;2.15;;
71896;SDS011;59767;51.344;12.362;2023-09-19T08:17:33;8.48;;;1.63;;
71896;SDS011;59767;51.344;12.362;2023-09-19T08:20:39;7.93;;;1.55;;
71896;SDS011;59767;51.344;12.362;2023-09-19T08:23:46;7.85;;;1.48;;
71896;SDS011;59767;51.344;12.362;2023-09-19T08:26:50;8.15;;;1.52;;
71896;SDS011;59767;51.344;12.362;2023-09-19T08:29:55;10.13;;;1.60;;
71896;SDS011;59767;51.344;12.362;2023-09-19T08:32:59;9.48;;;1.50;;
71896;SDS011;59767;51.344;12.362;2023-09-19T08:36:04;5.97;;;1.55;;
71896;SDS011;59767;51.344;12.362;2023-09-19T08:39:12;10.15;;;1.60;;
71896;SDS011;59767;51.344;12.362;2023-09-19T08:42:17;13.73;;;1.80;;
71896;SDS011;59767;51.344;12.362;2023-09-19T08:45:24;8.60;;;1.70;;
71896;SDS011;59767;51.344;12.362;2023-09-19T08:48:32;10.55;;;1.70;;
71896;SDS011;59767;51.344;12.362;2023-09-19T08:51:42;7.10;;;1.50;;
71896;SDS011;59767;51.344;12.362;2023-09-19T08:54:51;8.68;;;1.60;;
71896;SDS011;59767;51.344;12.362;2023-09-19T08:58:02;7.82;;;1.70;;
71896;SDS011;59767;51.344;12.362;2023-09-19T09:01:08;11.80;;;1.70;;
71896;SDS011;59767;51.344;12.362;2023-09-19T09:04:14;11.23;;;1.70;;
71896;SDS011;59767;51.344;12.362;2023-09-19T09:07:18;8.57;;;1.80;;
71896;SDS011;59767;51.344;12.362;2023-09-19T09:10:24;12.80;;;1.95;;
71896;SDS011;59767;51.344;12.362;2023-09-19T09:13:29;8.48;;;1.50;;
71896;SDS011;59767;51.344;12.362;2023-09-19T09:16:34;4.75;;;1.35;;
71896;SDS011;59767;51.344;12.362;2023-09-19T09:19:39;7.47;;;1.58;;
71896;SDS011;59767;51.344;12.362;2023-09-19T09:22:52;7.10;;;1.60;;
71896;SDS011;59767;51.344;12.362;2023-09-19T09:26:04;7.28;;;1.52;;
71896;SDS011;59767;51.344;12.362;2023-09-19T09:29:10;8.18;;;1.35;;
71896;SDS011;59767;51.344;12.362;2023-09-19T09:35:32;9.85;;;1.70;;
71896;SDS011;59767;51.344;12.362;2023-09-19T09:38:43;8.35;;;1.88;;
71896;SDS011;59767;51.344;12.362;2023-09-19T09:41:49;6.68;;;1.60;;
71896;SDS011;59767;51.344;12.362;2023-09-19T09:48:24;6.95;;;1.70;;
71896;SDS011;59767;51.344;12.362;2023-09-19T09:51:35;7.82;;;1.60;;
71896;SDS011;59767;51.344;12.362;2023-09-19T09:54:39;10.02;;;1.75;;
71896;SDS011;59767;51.344;12.362;2023-09-19T09:58:17;6.15;;;1.65;;
71896;SDS011;59767;51.344;12.362;2023-09-19T10:01:22;6.47;;;1.60;;
71896;SDS011;59767;51.344;12.362;2023-09-19T10:04:30;9.90;;;1.83;;
71896;SDS011;59767;51.344;12.362;2023-09-19T10:07:40;6.60;;;1.90;;
71896;SDS011;59767;51.344;12.362;2023-09-19T10:10:51;4.97;;;1.67;;
71896;SDS011;59767;51.344;12.362;2023-09-19T10:13:57;10.60;;;1.70;;
71896;SDS011;59767;51.344;12.362;2023-09-19T10:20:17;8.95;;;1.67;;
71896;SDS011;59767;51.344;12.362;2023-09-19T10:23:37;7.25;;;1.90;;
71896;SDS011;59767;51.344;12.362;2023-09-19T10:26:46;8.73;;;1.80;;
71896;SDS011;59767;51.344;12.362;2023-09-19T10:29:54;11.82;;;2.00;;
71896;SDS011;59767;51.344;12.362;2023-09-19T10:33:04;7.30;;;1.70;;
71896;SDS011;59767;51.344;12.362;2023-09-19T10:36:09;8.05;;;1.80;;
71896;SDS011;59767;51.344;12.362;2023-09-19T10:39:16;11.30;;;1.88;;
71896;SDS011;59767;51.344;12.362;2023-09-19T10:42:23;8.55;;;1.77;;
71896;SDS011;59767;51.344;12.362;2023-09-19T10:45:35;11.35;;;2.00;;
71896;SDS011;59767;51.344;12.362;2023-09-19T10:48:42;11.98;;;2.22;;
71896;SDS011;59767;51.344;12.362;2023-09-19T10:51:53;16.30;;;2.20;;
71896;SDS011;59767;51.344;12.362;2023-09-19T10:55:01;7.28;;;2.17;;
71896;SDS011;59767;51.344;12.362;2023-09-19T10:58:06;8.65;;;1.77;;
71896;SDS011;59767;51.344;12.362;2023-09-19T11:01:18;9.23;;;2.00;;
71896;SDS011;59767;51.344;12.362;2023-09-19T11:04:31;10.88;;;2.60;;
71896;SDS011;59767;51.344;12.362;2023-09-19T11:07:58;9.80;;;2.33;;
71896;SDS011;59767;51.344;12.362;2023-09-19T11:11:17;6.10;;;2.00;;
71896;SDS011;59767;51.344;12.362;2023-09-19T11:14:45;9.75;;;2.03;;
71896;SDS011;59767;51.344;12.362;2023-09-19T11:17:49;9.48;;;3.00;;
71896;SDS011;59767;51.344;12.362;2023-09-19T11:21:42;5.60;;;1.65;;
71896;SDS011;59767;51.344;12.362;2023-09-19T11:24:35;8.52;;;1.70;;
71896;SDS011;59767;51.344;12.362;2023-09-19T11:28:06;10.60;;;1.80;;
71896;SDS011;59767;51.344;12.362;2023-09-19T11:34:45;5.97;;;1.77;;
71896;SDS011;59767;51.344;12.362;2023-09-19T11:41:36;14.65;;;2.35;;
71896;SDS011;59767;51.344;12.362;2023-09-19T11:47:34;10.13;;;2.10;;
71896;SDS011;59767;51.344;12.362;2023-09-19T11:50:42;5.63;;;1.75;;
71896;SDS011;59767;51.344;12.362;2023-09-19T11:53:48;10.23;;;1.98;;
71896;SDS011;59767;51.344;12.362;2023-09-19T11:56:55;11.85;;;2.05;;
71896;SDS011;59767;51.344;12.362;2023-09-19T12:00:01;7.93;;;2.88;;
71896;SDS011;59767;51.344;12.362;2023-09-19T12:03:08;12.90;;;2.00;;
71896;SDS011;59767;51.344;12.362;2023-09-19T12:06:14;8.30;;;2.20;;
71896;SDS011;59767;51.344;12.362;2023-09-19T12:09:19;9.07;;;1.98;;
71896;SDS011;59767;51.344;12.362;2023-09-19T12:12:25;7.45;;;1.70;;
71896;SDS011;59767;51.344;12.362;2023-09-19T12:15:37;7.03;;;2.13;;
71896;SDS011;59767;51.344;12.362;2023-09-19T12:18:44;10.10;;;2.25;;
71896;SDS011;59767;51.344;12.362;2023-09-19T12:21:54;7.43;;;1.98;;
71896;SDS011;59767;51.344;12.362;2023-09-19T12:25:05;9.60;;;2.50;;
71896;SDS011;59767;51.344;12.362;2023-09-19T12:28:10;7.05;;;1.98;;
71896;SDS011;59767;51.344;12.362;2023-09-19T12:31:15;7.00;;;2.00;;
71896;SDS011;59767;51.344;12.362;2023-09-19T12:34:25;8.25;;;2.03;;
71896;SDS011;59767;51.344;12.362;2023-09-19T12:37:33;8.73;;;2.20;;
71896;SDS011;59767;51.344;12.362;2023-09-19T12:40:40;12.15;;;2.20;;
71896;SDS011;59767;51.344;12.362;2023-09-19T12:43:46;8.50;;;1.85;;
71896;SDS011;59767;51.344;12.362;2023-09-19T12:46:50;9.98;;;2.33;;
71896;SDS011;59767;51.344;12.362;2023-09-19T12:50:05;7.95;;;2.50;;
71896;SDS011;59767;51.344;12.362;2023-09-19T12:53:26;14.32;;;2.20;;
71896;SDS011;59767;51.344;12.362;2023-09-19T12:56:40;6.45;;;2.20;;
71896;SDS011;59767;51.344;12.362;2023-09-19T12:59:51;6.90;;;2.15;;
71896;SDS011;59767;51.344;12.362;2023-09-19T13:03:10;8.10;;;2.20;;
71896;SDS011;59767;51.344;12.362;2023-09-19T13:06:15;13.02;;;2.22;;
71896;SDS011;59767;51.344;12.362;2023-09-19T13:09:22;6.20;;;2.30;;
71896;SDS011;59767;51.344;12.362;2023-09-19T13:12:38;9.88;;;2.20;;
71896;SDS011;59767;51.344;12.362;2023-09-19T13:15:52;8.00;;;2.40;;
71896;SDS011;59767;51.344;12.362;2023-09-19T13:18:56;6.55;;;2.25;;
71896;SDS011;59767;51.344;12.362;2023-09-19T13:22:01;5.97;;;2.40;;
71896;SDS011;59767;51.344;12.362;2023-09-19T13:25:07;8.68;;;2.40;;
71896;SDS011;59767;51.344;12.362;2023-09-19T13:28:17;7.22;;;2.40;;
71896;SDS011;59767;51.344;12.362;2023-09-19T13:31:22;8.35;;;2.40;;
71896;SDS011;59767;51.344;12.362;2023-09-19T13:34:27;9.13;;;2.60;;
71896;SDS011;59767;51.344;12.362;2023-09-19T13:37:33;8.13;;;2.38;;
71896;SDS011;59767;51.344;12.362;2023-09-19T13:40:39;9.05;;;2.47;;
71896;SDS011;59767;51.344;12.362;2023-09-19T13:43:46;9.13;;;2.70;;
71896;SDS011;59767;51.344;12.362;2023-09-19T13:46:52;7.95;;;2.40;;
71896;SDS011;59767;51.344;12.362;2023-09-19T13:49:59;8.73;;;2.65;;
71896;SDS011;59767;51.344;12.362;2023-09-19T13:53:04;10.00;;;2.35;;
71896;SDS011;59767;51.344;12.362;2023-09-19T13:56:08;7.80;;;2.40;;
71896;SDS011;59767;51.344;12.362;2023-09-19T13:59:13;7.20;;;2.60;;
71896;SDS011;59767;51.344;12.362;2023-09-19T14:02:17;7.22;;;2.60;;
71896;SDS011;59767;51.344;12.362;2023-09-19T14:05:27;7.85;;;2.40;;
71896;SDS011;59767;51.344;12.362;2023-09-19T14:08:32;8.10;;;2.72;;
71896;SDS011;59767;51.344;12.362;2023-09-19T14:11:39;7.97;;;2.63;;
71896;SDS011;59767;51.344;12.362;2023-09-19T14:14:43;7.25;;;2.55;;
71896;SDS011;59767;51.344;12.362;2023-09-19T14:17:48;8.93;;;2.55;;
71896;SDS011;59767;51.344;12.362;2023-09-19T14:20:52;8.30;;;2.60;;
71896;SDS011;59767;51.344;12.362;2023-09-19T14:23:57;6.35;;;2.33;;
71896;SDS011;59767;51.344;12.362;2023-09-19T14:27:01;7.13;;;2.47;;
71896;SDS011;59767;51.344;12.362;2023-09-19T14:30:07;10.45;;;3.75;;
71896;SDS011;59767;51.344;12.362;2023-09-19T14:33:12;8.57;;;2.80;;
71896;SDS011;59767;51.344;12.362;2023-09-19T14:36:19;11.93;;;2.70;;
71896;SDS011;59767;51.344;12.362;2023-09-19T14:39:23;9.18;;;2.38;;
71896;SDS011;59767;51.344;12.362;2023-09-19T14:42:27;7.57;;;2.40;;
71896;SDS011;59767;51.344;12.362;2023-09-19T14:45:31;9.45;;;2.70;;
71896;SDS011;59767;51.344;12.362;2023-09-19T14:48:36;8.80;;;2.50;;
71896;SDS011;59767;51.344;12.362;2023-09-19T14:51:40;6.55;;;2.50;;
71896;SDS011;59767;51.344;12.362;2023-09-19T14:54:45;10.55;;;2.85;;
71896;SDS011;59767;51.344;12.362;2023-09-19T14:57:49;9.63;;;2.75;;
71896;SDS011;59767;51.344;12.362;2023-09-19T15:04:14;6.18;;;2.50;;
71896;SDS011;59767;51.344;12.362;2023-09-19T15:07:18;8.85;;;2.70;;
71896;SDS011;59767;51.344;12.362;2023-09-19T15:10:22;8.55;;;2.95;;
71896;SDS011;59767;51.344;12.362;2023-09-19T15:13:27;7.45;;;2.80;;
71896;SDS011;59767;51.344;12.362;2023-09-19T15:16:33;6.88;;;2.75;;
71896;SDS011;59767;51.344;12.362;2023-09-19T15:19:37;10.73;;;3.53;;
71896;SDS011;59767;51.344;12.362;2023-09-19T15:22:42;9.48;;;2.80;;
71896;SDS011;59767;51.344;12.362;2023-09-19T15:25:50;7.63;;;2.42;;
71896;SDS011;59767;51.344;12.362;2023-09-19T15:28:54;9.48;;;3.05;;
71896;SDS011;59767;51.344;12.362;2023-09-19T15:31:59;8.60;;;3.30;;
71896;SDS011;59767;51.344;12.362;2023-09-19T15:35:06;6.53;;;2.65;;
71896;SDS011;59767;51.344;12.362;2023-09-19T15:38:13;7.75;;;2.90;;
71896;SDS011;59767;51.344;12.362;2023-09-19T15:41:17;12.75;;;3.00;;
71896;SDS011;59767;51.344;12.362;2023-09-19T15:44:21;10.23;;;3.28;;
71896;SDS011;59767;51.344;12.362;2023-09-19T15:47:27;9.90;;;3.30;;
71896;SDS011;59767;51.344;12.362;2023-09-19T15:50:33;7.70;;;2.85;;
71896;SDS011;59767;51.344;12.362;2023-09-19T15:53:46;11.82;;;2.92;;
71896;SDS011;59767;51.344;12.362;2023-09-19T15:56:55;10.52;;;2.90;;
71896;SDS011;59767;51.344;12.362;2023-09-19T15:59:59;9.68;;;3.03;;
71896;SDS011;59767;51.344;12.362;2023-09-19T16:03:04;9.32;;;2.90;;
71896;SDS011;59767;51.344;12.362;2023-09-19T16:06:08;11.63;;;3.30;;
71896;SDS011;59767;51.344;12.362;2023-09-19T16:09:13;7.15;;;2.70;;
71896;SDS011;59767;51.344;12.362;2023-09-19T16:12:18;9.18;;;2.75;;
71896;SDS011;59767;51.344;12.362;2023-09-19T16:15:22;10.25;;;2.97;;
71896;SDS011;59767;51.344;12.362;2023-09-19T16:18:26;10.50;;;2.97;;
71896;SDS011;59767;51.344;12.362;2023-09-19T16:21:30;8.82;;;2.80;;
71896;SDS011;59767;51.344;12.362;2023-09-19T16:24:35;9.18;;;2.83;;
71896;SDS011;59767;51.344;12.362;2023-09-19T16:27:40;9.32;;;2.90;;
71896;SDS011;59767;51.344;12.362;2023-09-19T16:30:44;6.57;;;2.80;;
71896;SDS011;59767;51.344;12.362;2023-09-19T16:33:48;9.18;;;2.75;;
71896;SDS011;59767;51.344;12.362;2023-09-19T16:36:52;8.60;;;3.00;;
71896;SDS011;59767;51.344;12.362;2023-09-19T16:39:57;11.45;;;3.65;;
71896;SDS011;59767;51.344;12.362;2023-09-19T16:43:03;14.13;;;4.45;;
71896;SDS011;59767;51.344;12.362;2023-09-19T16:46:07;8.27;;;2.67;;
71896;SDS011;59767;51.344;12.362;2023-09-19T16:49:15;11.60;;;3.47;;
71896;SDS011;59767;51.344;12.362;2023-09-19T16:52:19;12.77;;;3.63;;
71896;SDS011;59767;51.344;12.362;2023-09-19T16:55:23;13.88;;;3.35;;
71896;SDS011;59767;51.344;12.362;2023-09-19T16:58:27;11.25;;;2.83;;
71896;SDS011;59767;51.344;12.362;2023-09-19T17:01:33;14.65;;;3.10;;
71896;SDS011;59767;51.344;12.362;2023-09-19T17:04:39;16.38;;;3.72;;
71896;SDS011;59767;51.344;12.362;2023-09-19T17:07:43;11.63;;;2.80;;
71896;SDS011;59767;51.344;12.362;2023-09-19T17:10:49;14.15;;;3.78;;
71896;SDS011;59767;51.344;12.362;2023-09-19T17:13:53;8.98;;;2.75;;
71896;SDS011;59767;51.344;12.362;2023-09-19T17:16:57;14.10;;;2.90;;
71896;SDS011;59767;51.344;12.362;2023-09-19T17:20:01;9.65;;;3.08;;
71896;SDS011;59767;51.344;12.362;2023-09-19T17:23:06;13.75;;;3.30;;
71896;SDS011;59767;51.344;12.362;2023-09-19T17:26:12;14.05;;;3.25;;
71896;SDS011;59767;51.344;12.362;2023-09-19T17:29:18;9.20;;;2.88;;
71896;SDS011;59767;51.344;12.362;2023-09-19T17:32:22;10.07;;;3.00;;
71896;SDS011;59767;51.344;12.362;2023-09-19T17:35:26;8.63;;;2.47;;
71896;SDS011;59767;51.344;12.362;2023-09-19T17:38:30;11.80;;;2.92;;
71896;SDS011;59767;51.344;12.362;2023-09-19T17:41:34;8.63;;;2.60;;
71896;SDS011;59767;51.344;12.362;2023-09-19T17:44:38;6.05;;;2.50;;
71896;SDS011;59767;51.344;12.362;2023-09-19T17:47:43;7.00;;;2.50;;
71896;SDS011;59767;51.344;12.362;2023-09-19T17:50:47;8.73;;;2.70;;
71896;SDS011;59767;51.344;12.362;2023-09-19T17:53:52;10.35;;;2.70;;
71896;SDS011;59767;51.344;12.362;2023-09-19T17:56:57;9.77;;;3.25;;
71896;SDS011;59767;51.344;12.362;2023-09-19T18:00:02;8.88;;;3.05;;
71896;SDS011;59767;51.344;12.362;2023-09-19T18:03:09;10.68;;;3.00;;
71896;SDS011;59767;51.344;12.362;2023-09-19T18:06:13;10.43;;;3.05;;
71896;SDS011;59767;51.344;12.362;2023-09-19T18:09:18;12.70;;;3.00;;
71896;SDS011;59767;51.344;12.362;2023-09-19T18:12:22;8.90;;;2.60;;
71896;SDS011;59767;51.344;12.362;2023-09-19T18:15:26;9.60;;;2.70;;
71896;SDS011;59767;51.344;12.362;2023-09-19T18:18:36;10.60;;;2.80;;
71896;SDS011;59767;51.344;12.362;2023-09-19T18:21:41;7.82;;;2.65;;
71896;SDS011;59767;51.344;12.362;2023-09-19T18:24:50;10.73;;;2.97;;
71896;SDS011;59767;51.344;12.362;2023-09-19T18:27:54;7.75;;;2.80;;
71896;SDS011;59767;51.344;12.362;2023-09-19T18:30:58;8.75;;;2.70;;
71896;SDS011;59767;51.344;12.362;2023-09-19T18:34:02;7.95;;;2.80;;
71896;SDS011;59767;51.344;12.362;2023-09-19T18:37:06;8.05;;;2.47;;
71896;SDS011;59767;51.344;12.362;2023-09-19T18:40:11;9.93;;;2.85;;
71896;SDS011;59767;51.344;12.362;2023-09-19T18:43:17;9.43;;;2.80;;
71896;SDS011;59767;51.344;12.362;2023-09-19T18:46:21;10.90;;;3.00;;
71896;SDS011;59767;51.344;12.362;2023-09-19T18:49:25;8.60;;;2.85;;
71896;SDS011;59767;51.344;12.362;2023-09-19T18:52:30;13.25;;;4.90;;
71896;SDS011;59767;51.344;12.362;2023-09-19T18:55:35;8.90;;;2.90;;
71896;SDS011;59767;51.344;12.362;2023-09-19T18:58:40;10.63;;;2.88;;